createdAt,value
2023-02-04T00:01:53.534Z,4.57
2023-02-04T00:04:25.223Z,4.40
2023-02-04T00:06:56.921Z,4.40
2023-02-04T00:09:28.604Z,3.33
2023-02-04T00:12:00.309Z,3.97
2023-02-04T00:14:32.011Z,4.37
2023-02-04T00:17:03.709Z,4.30
2023-02-04T00:19:35.406Z,4.10
2023-02-04T00:22:07.916Z,4.27
2023-02-04T00:24:39.613Z,4.20
2023-02-04T00:27:11.302Z,3.83
2023-02-04T00:29:43.001Z,3.53
2023-02-04T00:32:14.756Z,4.10
2023-02-04T00:34:46.658Z,3.50
2023-02-04T00:37:18.364Z,3.00
2023-02-04T00:39:50.246Z,3.30
2023-02-04T00:42:22.201Z,3.10
2023-02-04T00:44:54.636Z,3.37
2023-02-04T00:47:26.304Z,3.30
2023-02-04T00:49:58.062Z,3.27
2023-02-04T00:52:29.794Z,2.80
2023-02-04T00:55:01.623Z,2.73
2023-02-04T00:57:33.615Z,2.70
2023-02-04T01:00:06.473Z,2.43
2023-02-04T01:02:40.517Z,2.70
2023-02-04T01:05:12.352Z,3.97
2023-02-04T01:07:44.162Z,3.17
2023-02-04T01:10:17.885Z,2.60
2023-02-04T01:12:49.800Z,3.20
2023-02-04T01:15:22.982Z,2.80
2023-02-04T01:17:54.750Z,3.20
2023-02-04T01:20:26.888Z,2.57
2023-02-04T01:22:58.597Z,3.50
2023-02-04T01:25:30.272Z,3.03
2023-02-04T01:28:02.146Z,3.50
2023-02-04T01:30:34.088Z,3.77
2023-02-04T01:33:05.949Z,2.90
2023-02-04T01:35:37.693Z,2.67
2023-02-04T01:38:09.402Z,2.77
2023-02-04T01:40:42.818Z,3.37
2023-02-04T01:43:14.936Z,3.60
2023-02-04T01:45:46.821Z,2.83
2023-02-04T01:48:21.635Z,3.83
2023-02-04T01:51:16.109Z,4.10
2023-02-04T01:53:47.792Z,4.40
2023-02-04T01:56:22.773Z,4.20
2023-02-04T01:58:56.343Z,4.80
2023-02-04T02:01:41.976Z,3.90
2023-02-04T02:04:20.485Z,4.40
2023-02-04T02:06:58.841Z,3.87
2023-02-04T02:09:32.618Z,3.92
2023-02-04T02:12:04.615Z,3.63
2023-02-04T02:14:36.323Z,3.83
2023-02-04T02:17:08.025Z,2.87
2023-02-04T02:19:41.130Z,2.57
2023-02-04T02:22:18.579Z,2.40
2023-02-04T02:24:50.370Z,2.70
2023-02-04T02:27:22.422Z,2.33
2023-02-04T02:29:54.131Z,2.40
2023-02-04T02:32:25.853Z,4.93
2023-02-04T02:34:57.696Z,2.13
2023-02-04T02:37:30.222Z,1.80
2023-02-04T02:40:02.340Z,1.90
2023-02-04T02:42:34.279Z,1.77
2023-02-04T02:45:13.295Z,2.10
2023-02-04T02:47:45.011Z,2.30
2023-02-04T02:50:21.037Z,2.47
2023-02-04T02:52:53.779Z,2.10
2023-02-04T02:55:27.847Z,2.10
2023-02-04T02:57:59.578Z,2.43
2023-02-04T03:00:31.587Z,1.93
2023-02-04T03:03:13.915Z,1.88
2023-02-04T03:05:48.174Z,1.97
2023-02-04T03:08:20.942Z,2.00
2023-02-04T03:10:52.657Z,2.47
2023-02-04T03:13:24.452Z,1.77
2023-02-04T03:15:57.188Z,1.80
2023-02-04T03:18:29.410Z,1.57
2023-02-04T03:21:02.039Z,2.47
2023-02-04T03:23:35.826Z,2.23
2023-02-04T03:26:07.681Z,1.85
2023-02-04T03:28:41.819Z,2.80
2023-02-04T03:31:13.643Z,2.07
2023-02-04T03:33:45.476Z,2.53
2023-02-04T03:36:17.225Z,2.20
2023-02-04T03:38:48.963Z,2.67
2023-02-04T03:41:21.009Z,2.43
2023-02-04T03:43:52.718Z,2.30
2023-02-04T03:46:25.883Z,2.50
2023-02-04T03:48:57.742Z,2.63
2023-02-04T03:51:29.455Z,2.80
2023-02-04T03:54:01.154Z,3.50
2023-02-04T03:56:32.832Z,4.00
2023-02-04T03:59:04.576Z,3.20
2023-02-04T04:01:36.382Z,3.70
2023-02-04T04:04:08.092Z,3.70
2023-02-04T04:06:39.803Z,3.37
2023-02-04T04:09:11.580Z,3.13
2023-02-04T04:11:43.236Z,2.60
2023-02-04T04:14:15.103Z,3.00
2023-02-04T04:16:46.767Z,3.47
2023-02-04T04:19:18.463Z,3.30
2023-02-04T04:21:50.141Z,3.37
2023-02-04T04:24:21.814Z,3.60
2023-02-04T04:26:53.500Z,3.20
2023-02-04T04:29:25.180Z,3.57
2023-02-04T04:31:56.873Z,3.40
2023-02-04T04:34:28.599Z,3.80
2023-02-04T04:37:00.377Z,3.20
2023-02-04T04:39:32.069Z,3.23
2023-02-04T04:42:03.868Z,4.70
2023-02-04T04:44:35.608Z,3.80
2023-02-04T04:47:07.276Z,3.70
2023-02-04T04:49:39.015Z,3.57
2023-02-04T04:52:10.883Z,4.20
2023-02-04T04:54:42.744Z,4.07
2023-02-04T04:57:14.541Z,3.90
2023-02-04T04:59:46.260Z,3.40
2023-02-04T05:02:17.973Z,4.33
2023-02-04T05:04:49.829Z,5.30
2023-02-04T05:07:21.749Z,4.50
2023-02-04T05:09:53.456Z,4.50
2023-02-04T05:12:25.171Z,4.68
2023-02-04T05:14:56.825Z,4.17
2023-02-04T05:17:28.777Z,4.80
2023-02-04T05:20:00.707Z,4.23
2023-02-04T05:22:32.467Z,4.60
2023-02-04T05:25:04.313Z,5.00
2023-02-04T05:27:35.995Z,4.43
2023-02-04T05:30:09.609Z,4.90
2023-02-04T05:32:41.654Z,4.70
2023-02-04T05:35:13.449Z,5.03
2023-02-04T05:37:45.209Z,3.50
2023-02-04T05:40:17.201Z,4.33
2023-02-04T05:42:48.881Z,4.60
2023-02-04T05:45:20.661Z,4.17
2023-02-04T05:47:53.196Z,3.67
2023-02-04T05:50:24.936Z,4.83
2023-02-04T05:52:56.658Z,5.70
2023-02-04T05:55:28.386Z,4.23
2023-02-04T05:58:00.354Z,3.93
2023-02-04T06:00:32.341Z,4.33
2023-02-04T06:03:04.254Z,8.33
2023-02-04T06:05:36.094Z,5.10
2023-02-04T06:08:07.765Z,5.15
2023-02-04T06:10:39.509Z,4.93
2023-02-04T06:13:11.188Z,5.60
2023-02-04T06:15:43.003Z,4.47
2023-02-04T06:18:14.681Z,4.50
2023-02-04T06:20:46.496Z,6.00
2023-02-04T06:23:18.271Z,5.60
2023-02-04T06:25:50.317Z,6.27
2023-02-04T06:28:22.026Z,6.00
2023-02-04T06:30:53.843Z,6.10
2023-02-04T06:33:25.597Z,5.20
2023-02-04T06:35:57.315Z,5.33
2023-02-04T06:38:29.045Z,6.47
2023-02-04T06:41:00.764Z,6.70
2023-02-04T06:43:32.581Z,5.67
2023-02-04T06:46:04.457Z,7.40
2023-02-04T06:48:36.202Z,6.27
2023-02-04T06:51:07.940Z,6.30
2023-02-04T06:53:40.577Z,6.60
2023-02-04T06:56:12.564Z,7.30
2023-02-04T06:58:44.229Z,6.40
2023-02-04T07:01:15.936Z,7.22
2023-02-04T07:03:47.689Z,7.53
2023-02-04T07:06:19.370Z,7.70
2023-02-04T07:08:51.110Z,7.57
2023-02-04T07:11:22.802Z,7.90
2023-02-04T07:13:54.478Z,7.07
2023-02-04T07:16:26.142Z,6.33
2023-02-04T07:18:57.807Z,6.80
2023-02-04T07:21:29.725Z,6.57
2023-02-04T07:24:01.543Z,7.27
2023-02-04T07:26:34.269Z,6.30
2023-02-04T07:29:08.558Z,7.13
2023-02-04T07:31:46.463Z,7.17
2023-02-04T07:34:18.565Z,7.93
2023-02-04T07:36:50.335Z,6.90
2023-02-04T07:39:22.072Z,7.73
2023-02-04T07:41:53.739Z,7.90
2023-02-04T07:44:25.493Z,7.17
2023-02-04T07:46:57.620Z,7.00
2023-02-04T07:49:30.540Z,7.93
2023-02-04T07:52:02.274Z,8.10
2023-02-04T07:54:34.036Z,8.80
2023-02-04T07:57:05.760Z,7.40
2023-02-04T07:59:37.472Z,8.73
2023-02-04T08:02:10.952Z,7.40
2023-02-04T08:04:42.690Z,9.00
2023-02-04T08:07:14.459Z,7.43
2023-02-04T08:09:46.947Z,8.03
2023-02-04T08:12:18.753Z,8.40
2023-02-04T08:14:50.581Z,8.67
2023-02-04T08:17:22.341Z,7.67
2023-02-04T08:19:54.097Z,7.20
2023-02-04T08:22:25.807Z,7.20
2023-02-04T08:24:57.470Z,10.03
2023-02-04T08:27:29.157Z,7.70
2023-02-04T08:30:00.863Z,7.50
2023-02-04T08:32:32.775Z,6.93
2023-02-04T08:35:06.461Z,7.87
2023-02-04T08:37:38.508Z,8.00
2023-02-04T08:40:10.934Z,7.37
2023-02-04T08:42:42.625Z,7.47
2023-02-04T08:45:14.482Z,7.63
2023-02-04T08:47:46.135Z,8.10
2023-02-04T08:50:18.030Z,7.67
2023-02-04T08:52:49.753Z,6.80
2023-02-04T08:55:21.517Z,7.10
2023-02-04T08:57:53.291Z,7.53
2023-02-04T09:00:25.508Z,6.77
2023-02-04T09:02:57.277Z,6.83
2023-02-04T09:05:29.033Z,7.30
2023-02-04T09:08:00.718Z,5.60
2023-02-04T09:10:32.735Z,7.10
2023-02-04T09:13:04.770Z,6.83
2023-02-04T09:15:36.498Z,6.50
2023-02-04T09:18:16.341Z,6.53
2023-02-04T09:20:49.456Z,7.10
2023-02-04T09:23:21.387Z,7.82
2023-02-04T09:25:53.164Z,7.60
2023-02-04T09:28:24.867Z,6.60
2023-02-04T09:30:56.638Z,5.30
2023-02-04T09:33:28.365Z,5.80
2023-02-04T09:36:00.111Z,5.40
2023-02-04T09:38:31.796Z,4.60
2023-02-04T09:41:08.401Z,5.07
2023-02-04T09:43:44.079Z,4.90
2023-02-04T09:46:22.265Z,5.13
2023-02-04T09:48:54.156Z,4.40
2023-02-04T09:51:28.857Z,4.40
2023-02-04T09:54:15.650Z,4.67
2023-02-04T09:56:48.130Z,5.00
2023-02-04T09:59:23.989Z,5.60
2023-02-04T10:02:01.679Z,4.63
2023-02-04T10:04:33.456Z,4.13
2023-02-04T10:07:12.092Z,3.70
2023-02-04T10:09:43.871Z,3.80
2023-02-04T10:12:15.672Z,4.40
2023-02-04T10:14:47.609Z,3.73
2023-02-04T10:17:23.091Z,4.67
2023-02-04T10:19:54.900Z,4.40
2023-02-04T10:22:26.646Z,3.80
2023-02-04T10:24:58.337Z,4.47
2023-02-04T10:27:30.100Z,3.77
2023-02-04T10:30:01.919Z,5.67
2023-02-04T10:32:33.906Z,3.40
2023-02-04T10:35:06.028Z,5.07
2023-02-04T10:37:37.687Z,3.95
2023-02-04T10:40:29.180Z,5.70
2023-02-04T10:43:14.968Z,3.50
2023-02-04T10:45:48.937Z,3.10
2023-02-04T10:48:21.773Z,3.40
2023-02-04T10:50:53.762Z,3.27
2023-02-04T10:53:45.143Z,2.83
2023-02-04T10:56:20.647Z,3.40
2023-02-04T10:58:52.509Z,3.00
2023-02-04T11:01:28.592Z,5.40
2023-02-04T11:04:00.413Z,2.87
2023-02-04T11:06:32.351Z,4.43
2023-02-04T11:09:04.366Z,5.00
2023-02-04T11:11:37.528Z,4.40
2023-02-04T11:14:24.100Z,4.30
2023-02-04T11:17:00.791Z,3.93
2023-02-04T11:19:38.876Z,3.53
2023-02-04T11:22:22.061Z,5.50
2023-02-04T11:24:55.940Z,4.43
2023-02-04T11:27:39.875Z,4.20
2023-02-04T11:30:22.536Z,4.20
2023-02-04T11:33:05.992Z,4.17
2023-02-04T11:35:37.685Z,4.00
2023-02-04T11:38:26.395Z,4.23
2023-02-04T11:40:59.352Z,4.97
2023-02-04T11:43:35.498Z,4.77
2023-02-04T11:46:16.764Z,5.13
2023-02-04T11:48:54.064Z,4.50
2023-02-04T11:51:33.033Z,4.13
2023-02-04T11:54:05.427Z,5.40
2023-02-04T11:56:37.289Z,3.90
2023-02-04T11:59:11.615Z,4.23
2023-02-04T12:01:43.293Z,4.90
2023-02-04T12:04:25.640Z,4.20
2023-02-04T12:07:04.391Z,4.67
2023-02-04T12:09:46.764Z,3.97
2023-02-04T12:12:30.593Z,4.50
2023-02-04T12:15:13.369Z,3.60
2023-02-04T12:17:46.251Z,4.87
2023-02-04T12:20:18.176Z,5.60
2023-02-04T12:22:50.029Z,3.73
2023-02-04T12:25:21.699Z,3.53
2023-02-04T12:27:55.664Z,3.80
2023-02-04T12:30:27.434Z,3.20
2023-02-04T12:32:59.148Z,3.43
2023-02-04T12:35:31.257Z,3.70
2023-02-04T12:38:03.754Z,3.50
2023-02-04T12:40:35.539Z,3.10
2023-02-04T12:43:07.581Z,3.00
2023-02-04T12:45:41.652Z,3.63
2023-02-04T12:48:14.017Z,3.50
2023-02-04T12:50:45.951Z,3.63
2023-02-04T12:53:17.641Z,2.77
2023-02-04T12:55:49.319Z,3.20
2023-02-04T12:58:21.101Z,4.17
2023-02-04T13:00:52.955Z,3.20
2023-02-04T13:03:25.263Z,3.17
2023-02-04T13:05:57.196Z,2.97
2023-02-04T13:08:28.901Z,2.93
2023-02-04T13:11:00.658Z,2.93
2023-02-04T13:13:32.346Z,3.47
2023-02-04T13:16:04.205Z,4.50
2023-02-04T13:18:35.885Z,3.50
2023-02-04T13:21:07.602Z,4.10
2023-02-04T13:23:39.291Z,3.03
2023-02-04T13:26:11.606Z,3.10
2023-02-04T13:28:43.350Z,2.77
2023-02-04T13:31:15.081Z,4.50
2023-02-04T13:33:46.789Z,3.50
2023-02-04T13:36:18.536Z,2.37
2023-02-04T13:38:50.245Z,3.20
2023-02-04T13:41:21.999Z,3.50
2023-02-04T13:43:54.013Z,5.30
2023-02-04T13:46:25.733Z,2.97
2023-02-04T13:48:57.419Z,3.33
2023-02-04T13:51:29.778Z,3.67
2023-02-04T13:54:01.527Z,3.30
2023-02-04T13:56:33.333Z,3.10
2023-02-04T13:59:05.094Z,2.97
2023-02-04T14:01:37.047Z,3.50
2023-02-04T14:04:08.826Z,3.33
2023-02-04T14:06:43.592Z,3.03
2023-02-04T14:09:15.647Z,3.27
2023-02-04T14:11:47.544Z,3.20
2023-02-04T14:14:19.343Z,3.55
2023-02-04T14:16:51.056Z,3.60
2023-02-04T14:19:27.584Z,3.00
2023-02-04T14:21:59.309Z,2.23
2023-02-04T14:24:31.224Z,2.70
2023-02-04T14:27:07.307Z,2.60
2023-02-04T14:29:39.017Z,2.90
2023-02-04T14:32:10.692Z,2.20
2023-02-04T14:34:42.397Z,3.00
2023-02-04T14:37:14.088Z,3.83
2023-02-04T14:39:45.769Z,2.37
2023-02-04T14:42:17.477Z,2.63
2023-02-04T14:44:49.206Z,2.73
2023-02-04T14:47:20.914Z,3.13
2023-02-04T14:49:52.592Z,2.97
2023-02-04T14:52:24.416Z,3.70
2023-02-04T14:54:56.226Z,2.97
2023-02-04T14:57:27.896Z,2.90
2023-02-04T14:59:59.550Z,3.30
2023-02-04T15:02:31.311Z,2.90
2023-02-04T15:05:03.753Z,2.77
2023-02-04T15:07:36.130Z,3.30
2023-02-04T15:10:08.523Z,2.60
2023-02-04T15:12:40.238Z,3.20
2023-02-04T15:15:12.008Z,3.50
2023-02-04T15:17:43.887Z,3.03
2023-02-04T15:20:15.969Z,3.20
2023-02-04T15:22:51.777Z,3.60
2023-02-04T15:25:24.129Z,4.07
2023-02-04T15:27:55.885Z,3.40
2023-02-04T15:30:27.623Z,3.67
2023-02-04T15:32:59.288Z,3.83
2023-02-04T15:35:30.998Z,3.90
2023-02-04T15:38:02.667Z,4.10
2023-02-04T15:40:34.661Z,3.83
2023-02-04T15:43:06.559Z,4.93
2023-02-04T15:45:41.330Z,4.40
2023-02-04T15:48:13.085Z,4.10
2023-02-04T15:50:44.804Z,3.00
2023-02-04T15:53:17.367Z,4.20
2023-02-04T15:55:49.252Z,3.80
2023-02-04T15:58:20.945Z,4.40
2023-02-04T16:00:52.655Z,4.23
2023-02-04T16:03:24.557Z,4.13
2023-02-04T16:05:56.230Z,4.93
2023-02-04T16:08:28.171Z,4.23
2023-02-04T16:10:59.840Z,4.37
2023-02-04T16:13:31.491Z,3.20
2023-02-04T16:16:03.327Z,3.87
2023-02-04T16:18:35.078Z,3.80
2023-02-04T16:21:06.907Z,4.10
2023-02-04T16:23:38.622Z,3.50
2023-02-04T16:26:10.312Z,4.20
2023-02-04T16:28:42.093Z,5.10
2023-02-04T16:31:15.163Z,4.33
2023-02-04T16:33:46.938Z,3.47
2023-02-04T16:36:19.050Z,3.67
2023-02-04T16:38:50.827Z,3.77
2023-02-04T16:41:22.532Z,4.17
2023-02-04T16:43:54.206Z,5.40
2023-02-04T16:46:26.113Z,4.73
2023-02-04T16:48:58.141Z,4.30
2023-02-04T16:51:29.808Z,4.67
2023-02-04T16:54:01.662Z,4.37
2023-02-04T16:56:36.080Z,4.17
2023-02-04T16:59:07.805Z,4.40
2023-02-04T17:01:39.752Z,4.67
2023-02-04T17:04:11.468Z,3.40
2023-02-04T17:06:43.225Z,6.23
2023-02-04T17:09:14.978Z,3.27
2023-02-04T17:11:46.711Z,4.07
2023-02-04T17:14:18.951Z,5.03
2023-02-04T17:16:53.379Z,4.80
2023-02-04T17:19:25.237Z,8.40
2023-02-04T17:21:56.908Z,5.37
2023-02-04T17:24:28.759Z,4.20
2023-02-04T17:27:03.250Z,3.80
2023-02-04T17:29:34.904Z,4.23
2023-02-04T17:32:07.663Z,10.90
2023-02-04T17:34:39.322Z,12.97
2023-02-04T17:37:11.046Z,9.73
2023-02-04T17:39:43.642Z,9.10
2023-02-04T17:42:15.452Z,7.60
2023-02-04T17:44:47.186Z,4.80
2023-02-04T17:47:18.932Z,6.67
2023-02-04T17:49:50.696Z,4.60
2023-02-04T17:52:22.403Z,4.20
2023-02-04T17:54:54.059Z,3.50
2023-02-04T17:57:25.766Z,3.33
2023-02-04T17:59:57.745Z,3.10
2023-02-04T18:02:31.697Z,4.23
2023-02-04T18:05:13.125Z,4.13
2023-02-04T18:07:54.090Z,3.40
2023-02-04T18:10:31.998Z,4.60
2023-02-04T18:13:30.322Z,5.20
2023-02-04T18:16:17.151Z,5.60
2023-02-04T18:18:49.284Z,4.30
2023-02-04T18:21:31.415Z,3.87
2023-02-04T18:24:09.264Z,3.60
2023-02-04T18:26:52.645Z,4.63
2023-02-04T18:29:27.156Z,4.10
2023-02-04T18:32:16.634Z,3.90
2023-02-04T18:34:53.682Z,3.40
2023-02-04T18:37:45.088Z,3.93
2023-02-04T18:40:24.025Z,3.57
2023-02-04T18:43:21.246Z,4.80
2023-02-04T18:45:53.518Z,3.60
2023-02-04T18:48:25.181Z,4.20
2023-02-04T18:50:56.964Z,4.37
2023-02-04T18:53:28.910Z,3.63
2023-02-04T18:56:02.091Z,4.20
2023-02-04T18:58:36.204Z,4.27
2023-02-04T19:01:10.944Z,4.03
2023-02-04T19:03:48.899Z,3.90
2023-02-04T19:06:33.142Z,3.80
2023-02-04T19:09:14.533Z,5.00
2023-02-04T19:11:48.665Z,4.40
2023-02-04T19:14:33.040Z,3.50
2023-02-04T19:17:13.585Z,5.73
2023-02-04T19:19:56.688Z,4.17
2023-02-04T19:22:46.122Z,4.70
2023-02-04T19:25:35.566Z,6.13
2023-02-04T19:28:36.091Z,4.97
2023-02-04T19:31:08.260Z,4.80
2023-02-04T19:33:43.014Z,5.43
2023-02-04T19:36:37.156Z,5.17
2023-02-04T19:39:31.766Z,5.25
2023-02-04T19:42:33.870Z,5.57
2023-02-04T19:45:25.292Z,4.10
2023-02-04T19:47:57.655Z,5.30
2023-02-04T19:50:34.067Z,5.27
2023-02-04T19:53:08.709Z,4.53
2023-02-04T19:55:46.063Z,6.17
2023-02-04T19:58:28.804Z,6.30
2023-02-04T20:01:08.285Z,11.00
2023-02-04T20:03:44.793Z,9.97
2023-02-04T20:06:32.682Z,5.97
2023-02-04T20:09:22.560Z,5.83
2023-02-04T20:12:08.567Z,5.90
2023-02-04T20:14:47.185Z,7.57
2023-02-04T20:17:23.707Z,5.80
2023-02-04T20:20:13.864Z,5.83
2023-02-04T20:22:50.104Z,7.07
2023-02-04T20:25:27.616Z,6.13
2023-02-04T20:28:02.915Z,8.57
2023-02-04T20:30:34.715Z,6.77
2023-02-04T20:33:28.199Z,6.20
2023-02-04T20:36:17.837Z,6.70
2023-02-04T20:38:49.647Z,8.10
2023-02-04T20:41:22.296Z,7.27
2023-02-04T20:43:54.328Z,7.80
2023-02-04T20:46:26.553Z,7.23
2023-02-04T20:48:58.350Z,6.47
2023-02-04T20:51:31.698Z,6.57
2023-02-04T20:54:12.966Z,7.70
2023-02-04T20:56:45.157Z,8.20
2023-02-04T20:59:30.538Z,8.20
2023-02-04T21:02:16.035Z,7.03
2023-02-04T21:04:53.613Z,6.27
2023-02-04T21:07:25.692Z,6.70
2023-02-04T21:09:57.824Z,6.37
2023-02-04T21:12:30.041Z,6.40
2023-02-04T21:15:01.730Z,5.30
2023-02-04T21:17:33.428Z,6.00
2023-02-04T21:20:05.453Z,6.37
2023-02-04T21:22:37.128Z,6.70
2023-02-04T21:25:08.915Z,5.27
2023-02-04T21:27:40.673Z,6.78
2023-02-04T21:30:13.128Z,6.13
2023-02-04T21:32:44.940Z,6.00
2023-02-04T21:35:24.281Z,5.70
2023-02-04T21:38:00.204Z,4.77
2023-02-04T21:40:33.048Z,5.33
2023-02-04T21:43:07.574Z,5.70
2023-02-04T21:45:39.784Z,5.70
2023-02-04T21:48:11.831Z,5.40
2023-02-04T21:50:43.510Z,5.67
2023-02-04T21:53:15.305Z,5.87
2023-02-04T21:55:46.964Z,5.90
2023-02-04T21:58:18.784Z,6.53
2023-02-04T22:00:50.528Z,6.10
2023-02-04T22:03:22.311Z,7.13
2023-02-04T22:05:54.073Z,8.70
2023-02-04T22:08:25.812Z,8.20
2023-02-04T22:10:57.560Z,7.50
2023-02-04T22:13:29.239Z,6.87
2023-02-04T22:16:00.966Z,7.30
2023-02-04T22:18:32.719Z,7.23
2023-02-04T22:21:04.644Z,7.50
2023-02-04T22:23:36.533Z,7.90
2023-02-04T22:26:08.556Z,7.10
2023-02-04T22:28:40.219Z,7.00
2023-02-04T22:31:12.874Z,7.60
2023-02-04T22:33:44.625Z,9.20
2023-02-04T22:36:16.338Z,10.53
2023-02-04T22:38:47.989Z,11.03
2023-02-04T22:41:19.809Z,10.57
2023-02-04T22:43:51.572Z,11.80
2023-02-04T22:46:23.421Z,10.37
2023-02-04T22:48:55.646Z,11.37
2023-02-04T22:51:27.523Z,18.50
2023-02-04T22:54:01.078Z,18.00
2023-02-04T22:56:34.772Z,9.40
2023-02-04T22:59:06.509Z,9.73
2023-02-04T23:01:38.373Z,8.53
2023-02-04T23:04:10.088Z,8.40
2023-02-04T23:06:41.940Z,7.87
2023-02-04T23:09:14.271Z,7.50
2023-02-04T23:11:46.033Z,7.70
2023-02-04T23:14:17.786Z,6.80
2023-02-04T23:16:50.821Z,7.63
2023-02-04T23:19:22.604Z,6.67
2023-02-04T23:21:54.346Z,7.47
2023-02-04T23:24:26.163Z,6.53
2023-02-04T23:27:00.913Z,7.90
2023-02-04T23:29:35.074Z,10.50
2023-02-04T23:32:07.587Z,11.97
2023-02-04T23:34:39.400Z,12.10
2023-02-04T23:37:11.205Z,11.10
2023-02-04T23:39:42.875Z,10.67
2023-02-04T23:42:14.693Z,12.17
2023-02-04T23:44:46.417Z,10.80
2023-02-04T23:47:18.278Z,10.30
2023-02-04T23:49:50.121Z,13.10
2023-02-04T23:52:21.805Z,10.00
2023-02-04T23:54:53.547Z,10.20
2023-02-04T23:57:25.392Z,9.40
2023-02-04T23:59:57.089Z,10.07
